Time;durP1;ratioP1;P1;durP2;ratioP2;P2;SDS_P1;SDS_P2;PMS_P1;PMS_P2;Temp;Humidity;BMP_temperature;BMP_pressure;BME280_temperature;BME280_humidity;BME280_pressure;Samples;Min_cycle;Max_cycle;Signal;HPM_P1;HPM_P2
2021/11/12 00:12:44;;;;;;;40.22;13.15;;;;;;;2.02;69.71;99415.78;4929011;29;20046;-75
2021/11/12 00:15:12;;;;;;;33.22;13.40;;;;;;;2.12;69.81;99404.91;4962383;28;20046;-77
2021/11/12 00:17:40;;;;;;;32.40;14.18;;;;;;;2.15;69.30;99410.84;4953910;28;20046;-75
2021/11/12 00:20:07;;;;;;;31.05;14.73;;;;;;;2.13;69.52;99407.47;4937687;29;20055;-76
2021/11/12 00:22:33;;;;;;;31.02;12.90;;;;;;;2.22;69.28;99406.19;4953769;29;20054;-76
2021/11/12 00:25:01;;;;;;;38.72;14.18;;;;;;;2.13;69.39;99401.41;4955547;28;20047;-76
2021/11/12 00:27:29;;;;;;;34.83;13.75;;;;;;;2.14;69.24;99390.88;4952402;28;20046;-77
2021/11/12 00:30:10;;;;;;;37.60;14.32;;;;;;;1.99;69.84;99389.84;4973064;28;20055;-76
2021/11/12 00:38:09;;;;;;;35.85;14.00;;;;;;;1.85;69.99;99363.56;4934885;29;20516;-77
2021/11/12 00:40:29;;;;;;;39.97;15.25;;;;;;;1.77;70.48;99356.09;4934034;29;20052;-79
2021/11/12 00:45:29;;;;;;;35.33;13.80;;;;;;;1.88;69.84;99352.97;4934298;29;20051;-78
2021/11/12 00:55:23;;;;;;;31.80;13.48;;;;;;;1.91;69.88;99313.75;4972600;28;20047;-74
2021/11/12 00:57:50;;;;;;;35.53;14.68;;;;;;;1.86;69.70;99310.50;4926601;28;20134;-75
2021/11/12 01:00:16;;;;;;;41.20;14.50;;;;;;;1.81;69.98;99307.25;4959557;28;20098;-74
2021/11/12 01:02:42;;;;;;;33.85;14.40;;;;;;;1.72;70.35;99304.16;4955063;28;20055;-77
2021/11/12 01:05:09;;;;;;;31.65;14.60;;;;;;;1.72;70.24;99283.31;4973016;28;20524;-74
2021/11/12 01:07:36;;;;;;;30.73;14.18;;;;;;;1.76;70.01;99284.84;4972375;28;20077;-74
2021/11/12 01:10:03;;;;;;;35.15;12.65;;;;;;;1.81;69.31;99281.19;4967705;28;20061;-75
2021/11/12 01:12:29;;;;;;;30.23;13.00;;;;;;;1.83;69.81;99274.97;4935309;29;20046;-75
2021/11/12 01:14:55;;;;;;;36.45;14.18;;;;;;;1.83;69.18;99274.97;4953181;28;20376;-76
2021/11/12 01:17:21;;;;;;;30.02;12.95;;;;;;;1.73;69.25;99269.38;4953973;28;20125;-75
2021/11/12 01:19:47;;;;;;;32.22;12.30;;;;;;;1.82;69.56;99262.00;4938894;28;20134;-74
2021/11/12 01:22:13;;;;;;;28.23;12.45;;;;;;;1.87;68.36;99265.25;4972155;28;20516;-77
2021/11/12 01:24:39;;;;;;;31.55;12.27;;;;;;;1.86;68.53;99258.34;4970147;28;20043;-74
2021/11/12 01:27:06;;;;;;;34.15;12.80;;;;;;;1.86;69.08;99242.72;4955296;28;20039;-74
2021/11/12 01:29:32;;;;;;;32.35;12.18;;;;;;;1.86;68.33;99242.72;4952647;29;20066;-75
2021/11/12 01:32:18;;;;;;;26.45;11.68;;;;;;;1.86;68.46;99248.75;4950079;28;20077;-75
2021/11/12 01:34:45;;;;;;;30.88;12.43;;;;;;;1.84;67.87;99240.16;4972824;28;20050;-76
2021/11/12 01:37:11;;;;;;;28.13;11.35;;;;;;;1.89;67.39;99226.91;4972629;28;20043;-75
2021/11/12 01:39:37;;;;;;;30.02;11.38;;;;;;;1.90;67.95;99231.22;4936396;28;20496;-76
2021/11/12 01:42:03;;;;;;;30.20;12.07;;;;;;;1.76;67.49;99226.66;4952863;28;20106;-74
2021/11/12 01:44:33;;;;;;;29.95;11.63;;;;;;;1.73;67.75;99227.66;4952935;28;20043;-74
2021/11/12 01:49:35;;;;;;;29.67;11.32;;;;;;;1.74;66.85;99224.09;4971689;28;20050;-74
2021/11/12 01:55:04;;;;;;;31.80;12.10;;;;;;;1.51;67.44;99226.97;4892773;29;20079;-74
2021/11/12 02:00:18;;;;;;;34.13;12.52;;;;;;;1.48;67.88;99203.66;4881958;29;20061;-73
2021/11/12 02:02:44;;;;;;;27.23;11.18;;;;;;;1.54;67.30;99190.34;4890904;29;20670;-76
2021/11/12 02:05:11;;;;;;;27.98;11.93;;;;;;;1.54;67.64;99172.09;4876130;29;20056;-74
2021/11/12 02:07:38;;;;;;;28.20;11.60;;;;;;;1.56;67.53;99162.47;4892252;29;20540;-76
2021/11/12 02:10:16;;;;;;;28.92;10.93;;;;;;;1.68;67.29;99174.88;4892942;29;20041;-75
2021/11/12 02:15:28;;;;;;;37.85;11.30;;;;;;;1.60;66.93;99169.22;4880965;29;20170;-75
2021/11/12 02:17:59;;;;;;;28.95;10.82;;;;;;;1.57;67.68;99167.59;4873874;29;20368;-76
2021/11/12 02:20:32;;;;;;;25.95;10.45;;;;;;;1.65;66.86;99162.00;4873872;29;20081;-74
2021/11/12 02:23:02;;;;;;;30.15;11.07;;;;;;;1.57;66.98;99148.50;4874045;29;20071;-76
2021/11/12 02:25:32;;;;;;;34.85;11.68;;;;;;;1.50;67.94;99150.56;4873397;29;20065;-76
2021/11/12 02:28:02;;;;;;;32.40;11.63;;;;;;;1.47;67.70;99136.84;4878829;29;20040;-76
2021/11/12 02:30:31;;;;;;;35.35;13.60;;;;;;;1.52;67.85;99134.84;4891798;29;20063;-77
2021/11/12 02:33:13;;;;;;;;;;;;;;;1.58;67.81;99118.91;4942114;28;20118;-77
2021/11/12 02:35:57;;;;;;;31.17;11.57;;;;;;;1.55;67.94;99119.06;4933738;28;19923;-76
2021/11/12 02:38:23;;;;;;;29.15;11.23;;;;;;;1.42;68.57;99122.28;4964771;28;20519;-74
2021/11/12 02:40:51;;;;;;;35.88;12.52;;;;;;;1.49;69.20;99114.16;4953100;28;20047;-76
2021/11/12 02:43:17;;;;;;;31.42;12.10;;;;;;;1.51;68.98;99107.09;4959766;28;20045;-76
2021/11/12 02:45:44;;;;;;;34.08;13.77;;;;;;;1.48;69.49;99102.03;4938082;28;20043;-76
2021/11/12 02:48:11;;;;;;;32.15;11.65;;;;;;;1.41;69.63;99102.34;4971519;28;20054;-77
2021/11/12 02:50:39;;;;;;;37.75;13.55;;;;;;;1.26;70.24;99095.28;4953693;28;20037;-78
2021/11/12 02:53:11;;;;;;;31.42;11.80;;;;;;;1.27;70.25;99105.63;4971575;28;20046;-76
2021/11/12 02:55:37;;;;;;;33.95;11.70;;;;;;;1.21;70.85;99110.25;4954057;28;20042;-78
2021/11/12 02:58:04;;;;;;;37.67;12.18;;;;;;;1.28;70.14;99106.44;4935082;29;20479;-77
2021/11/12 03:00:30;;;;;;;48.17;16.75;;;;;;;1.29;70.35;99097.72;4961069;28;20520;-77
2021/11/12 03:02:55;;;;;;;35.50;12.73;;;;;;;1.22;70.58;99086.78;4951743;29;20043;-76
2021/11/12 03:05:21;;;;;;;30.08;12.82;;;;;;;1.20;71.32;99080.78;4952100;29;20443;-74
2021/11/12 03:07:47;;;;;;;30.58;12.68;;;;;;;1.21;71.55;99073.81;4952112;28;20050;-75
2021/11/12 03:10:15;;;;;;;32.53;11.85;;;;;;;1.10;71.72;99077.78;4951447;28;20035;-75
2021/11/12 03:12:42;;;;;;;37.65;12.60;;;;;;;1.17;71.76;99078.31;4951519;28;20043;-74
2021/11/12 03:15:10;;;;;;;31.07;11.90;;;;;;;1.19;71.59;99070.44;4955067;29;20051;-76
2021/11/12 03:17:36;;;;;;;39.33;12.93;;;;;;;1.06;72.57;99065.81;4937969;29;20920;-74
2021/11/12 03:20:04;;;;;;;35.15;12.65;;;;;;;0.98;73.20;99057.53;4955486;28;20047;-76
2021/11/12 03:22:36;;;;;;;33.42;13.85;;;;;;;0.91;74.00;99051.78;4957056;28;20105;-76
2021/11/12 03:25:08;;;;;;;36.05;13.52;;;;;;;0.89;74.39;99052.78;4972339;28;20039;-76
2021/11/12 03:28:04;;;;;;;40.67;14.02;;;;;;;0.82;74.85;99046.16;4954766;29;20533;-77
2021/11/12 04:05:47;;;;;;;39.60;13.48;;;;;;;0.69;77.73;98952.22;4954506;29;20043;-79
2021/11/12 04:40:59;;;;;;;41.75;13.43;;;;;;;0.83;75.99;98863.03;4973185;28;20126;-81
2021/11/12 05:10:47;;;;;;;39.15;13.60;;;;;;;0.67;76.87;98803.94;4958848;28;20039;-76
2021/11/12 05:35:18;;;;;;;41.08;15.15;;;;;;;0.65;77.35;98777.19;4972080;28;20046;-76
2021/11/12 05:56:31;;;;;;;42.00;15.30;;;;;;;0.64;78.30;98720.84;4972441;28;20280;-78
2021/11/12 05:58:57;;;;;;;42.45;15.13;;;;;;;0.64;78.65;98720.84;4971097;28;20126;-77
2021/11/12 06:01:25;;;;;;;44.33;15.65;;;;;;;0.65;78.45;98709.53;4969518;28;20409;-77
2021/11/12 06:03:51;;;;;;;60.97;18.33;;;;;;;0.68;78.53;98701.53;4955733;28;20489;-77
2021/11/12 06:06:17;;;;;;;50.95;16.75;;;;;;;0.67;79.01;98699.03;4961981;28;20058;-79
2021/11/12 06:08:42;;;;;;;47.85;15.57;;;;;;;0.64;79.23;98694.81;4962529;28;20455;-78
2021/11/12 06:11:08;;;;;;;49.65;17.92;;;;;;;0.60;79.46;98714.13;4969792;28;20043;-78
2021/11/12 06:13:35;;;;;;;50.55;17.65;;;;;;;0.59;79.45;98704.63;4962253;28;20086;-78
2021/11/12 06:16:01;;;;;;;41.05;14.95;;;;;;;0.53;79.26;98712.75;4970961;28;20043;-76
2021/11/12 06:18:27;;;;;;;194.25;60.20;;;;;;;0.46;80.04;98697.47;4971934;28;20047;-75
2021/11/12 06:20:53;;;;;;;47.10;17.00;;;;;;;0.55;79.78;98700.50;4949068;28;20046;-76
2021/11/12 06:23:19;;;;;;;51.85;18.13;;;;;;;0.55;80.51;98701.34;4945967;28;20050;-79
2021/11/12 06:25:45;;;;;;;40.13;14.25;;;;;;;0.53;80.49;98695.38;4935200;28;20062;-80
2021/11/12 06:28:10;;;;;;;46.13;16.02;;;;;;;0.48;80.34;98681.78;4955684;28;20066;-80
2021/11/12 06:30:36;;;;;;;53.22;17.42;;;;;;;0.56;80.71;98691.78;4922512;29;20043;-79
2021/11/12 06:33:02;;;;;;;41.70;15.15;;;;;;;0.55;80.67;98690.94;4922191;29;20047;-78
2021/11/12 06:35:28;;;;;;;57.95;16.38;;;;;;;0.59;80.44;98694.22;4958280;28;20394;-79
2021/11/12 06:37:54;;;;;;;49.22;18.48;;;;;;;0.60;80.46;98683.75;4954380;28;20031;-80
2021/11/12 06:40:21;;;;;;;46.00;15.65;;;;;;;0.54;80.54;98689.25;4906914;28;20042;-80
2021/11/12 06:43:04;;;;;;;56.65;17.42;;;;;;;0.60;81.25;98681.13;4940553;28;20027;-81
2021/11/12 06:51:02;;;;;;;47.85;17.23;;;;;;;0.75;81.14;98670.84;4941142;28;20046;-75
2021/11/12 06:53:27;;;;;;;47.35;17.10;;;;;;;0.71;80.39;98666.72;4940163;29;20320;-78
2021/11/12 06:55:56;;;;;;;48.42;17.45;;;;;;;0.69;80.92;98651.19;4926811;28;20138;-80
2021/11/12 06:58:23;;;;;;;44.95;16.77;;;;;;;0.72;80.85;98653.59;4943203;28;20046;-79
2021/11/12 07:00:49;;;;;;;61.35;21.00;;;;;;;0.69;80.95;98651.19;4977748;28;20043;-82
2021/11/12 07:03:15;;;;;;;45.30;17.15;;;;;;;0.73;81.74;98657.91;4958569;28;20391;-76
2021/11/12 07:05:41;;;;;;;49.95;15.68;;;;;;;0.84;80.81;98651.31;4975801;28;20042;-78
2021/11/12 07:08:06;;;;;;;48.20;17.50;;;;;;;0.74;81.60;98649.19;4975326;28;20047;-77
2021/11/12 07:10:32;;;;;;;49.80;15.43;;;;;;;0.84;81.06;98644.31;4975267;28;20043;-76
2021/11/12 07:12:58;;;;;;;39.15;15.13;;;;;;;0.84;81.34;98648.69;4975163;28;20069;-80
2021/11/12 07:15:24;;;;;;;36.88;12.73;;;;;;;0.90;80.91;98643.16;4975442;28;20051;-78
2021/11/12 07:17:49;;;;;;;33.40;13.93;;;;;;;0.91;81.27;98639.63;4975190;28;20089;-79
2021/11/12 07:20:16;;;;;;;38.45;14.98;;;;;;;0.93;81.25;98637.78;4941984;28;20046;-79
2021/11/12 07:22:41;;;;;;;43.95;15.82;;;;;;;0.94;81.55;98629.06;4957999;28;20050;-77
2021/11/12 07:25:08;;;;;;;37.92;14.68;;;;;;;1.02;81.44;98632.06;4957767;28;20046;-78
2021/11/12 07:27:34;;;;;;;54.25;17.77;;;;;;;1.02;80.64;98636.44;4974186;28;20045;-77
2021/11/12 07:30:00;;;;;;;33.95;13.15;;;;;;;1.09;81.31;98617.78;4957469;28;20106;-76
2021/11/12 07:32:27;;;;;;;35.35;12.38;;;;;;;1.11;80.60;98613.34;4974513;28;20050;-79
2021/11/12 07:34:56;;;;;;;32.17;12.80;;;;;;;1.15;80.92;98610.56;4975301;28;20097;-78
2021/11/12 07:37:23;;;;;;;39.72;13.55;;;;;;;1.23;81.04;98600.56;4957367;28;20047;-77
2021/11/12 07:39:51;;;;;;;28.77;11.88;;;;;;;1.22;80.50;98596.25;4974773;28;20042;-80
2021/11/12 07:47:17;;;;;;;;;;;;;;;1.31;80.16;98590.56;4975161;28;20432;-81
2021/11/12 07:49:45;;;;;;;32.45;11.82;;;;;;;1.39;79.84;98583.13;4973393;28;20391;-79
2021/11/12 07:52:11;;;;;;;;;;;;;;;1.34;79.69;98584.34;4958539;28;20051;-79
2021/11/12 07:54:39;;;;;;;32.80;12.23;;;;;;;1.26;80.29;98582.16;4974443;28;19929;-79
2021/11/12 07:57:05;;;;;;;35.42;13.70;;;;;;;1.29;80.77;98572.38;4974722;28;20055;-79
2021/11/12 07:59:31;;;;;;;30.92;12.07;;;;;;;1.38;80.10;98581.44;4956533;28;20444;-80
2021/11/12 08:01:57;;;;;;;31.00;12.70;;;;;;;1.33;80.45;98578.25;4957261;28;20053;-79
2021/11/12 08:04:23;;;;;;;29.65;11.52;;;;;;;1.39;79.94;98572.69;4973972;28;20042;-76
2021/11/12 08:06:52;;;;;;;50.10;18.10;;;;;;;1.40;79.71;98571.78;4974266;28;20042;-78
2021/11/12 08:09:21;;;;;;;31.42;12.77;;;;;;;1.49;79.49;98564.38;4957085;28;20039;-78
2021/11/12 08:19:45;;;;;;;35.78;13.15;;;;;;;1.67;79.50;98565.91;4940877;29;20448;-78
2021/11/12 08:22:19;;;;;;;25.42;11.52;;;;;;;1.74;79.30;98563.78;4939272;29;20054;-78
2021/11/12 08:25:51;;;;;;;37.63;14.00;;;;;;;1.80;78.52;98565.19;4956028;29;20493;-78
2021/11/12 08:27:54;;;;;;;42.85;17.75;;;;;;;1.77;78.91;98548.78;4938953;29;20070;-79
2021/11/12 08:30:51;;;;;;;85.18;31.83;;;;;;;1.73;79.29;98552.53;4940084;29;20055;-78
2021/11/12 08:39:04;;;;;;;39.20;14.30;;;;;;;1.88;78.61;98542.09;4938100;29;20047;-81
2021/11/12 08:41:14;;;;;;;44.72;16.27;;;;;;;1.87;78.82;98536.06;4946368;29;20055;-78
2021/11/12 08:44:03;;;;;;;38.05;15.43;;;;;;;1.97;78.58;98541.56;4938676;29;20050;-76
2021/11/12 08:46:37;;;;;;;53.33;20.20;;;;;;;1.95;78.61;98532.97;4936625;29;20455;-75
2021/11/12 08:49:16;;;;;;;49.05;20.38;;;;;;;2.03;78.97;98530.75;4937108;29;20047;-76
2021/11/12 08:51:42;;;;;;;;;;;;;;;2.03;79.15;98535.97;4954349;29;20054;-79
2021/11/12 08:54:08;;;;;;;29.27;12.10;;;;;;;2.13;78.97;98519.75;4953608;29;20346;-79
2021/11/12 08:56:36;;;;;;;32.95;13.38;;;;;;;2.35;78.99;98527.94;4936530;29;20064;-76
2021/11/12 08:59:05;;;;;;;38.25;14.85;;;;;;;2.43;78.18;98520.47;4953874;29;20106;-77
2021/11/12 09:01:34;;;;;;;43.55;16.40;;;;;;;2.39;78.48;98520.75;4922043;29;20051;-80
2021/11/12 09:04:00;;;;;;;44.05;16.80;;;;;;;2.52;78.42;98523.47;4955248;29;20130;-78
2021/11/12 09:06:26;;;;;;;38.30;14.50;;;;;;;2.53;78.30;98512.06;4937120;29;20127;-77
2021/11/12 09:08:52;;;;;;;94.97;36.55;;;;;;;2.64;78.27;98516.63;4954364;29;20845;-78
2021/11/12 09:11:18;;;;;;;32.03;13.50;;;;;;;2.47;78.48;98517.66;4920304;29;20448;-80
2021/11/12 09:13:59;;;;;;;34.50;13.50;;;;;;;2.52;78.09;98516.47;4969626;28;20082;-78
2021/11/12 09:16:36;;;;;;;39.60;14.90;;;;;;;2.40;78.35;98510.22;4973629;28;20797;-83
2021/11/12 09:19:07;;;;;;;31.52;13.35;;;;;;;2.59;78.10;98506.47;4957661;28;20137;-76
2021/11/12 09:21:33;;;;;;;35.55;13.32;;;;;;;2.65;78.35;98505.25;4972440;28;20038;-80
2021/11/12 09:23:59;;;;;;;33.42;12.93;;;;;;;2.70;78.07;98497.94;4939863;28;20069;-82
2021/11/12 09:26:26;;;;;;;32.35;13.00;;;;;;;2.78;77.81;98519.19;4971702;28;20455;-79
2021/11/12 09:28:52;;;;;;;33.35;13.18;;;;;;;2.87;77.53;98504.72;4955154;28;20117;-78
2021/11/12 09:31:19;;;;;;;32.55;12.85;;;;;;;2.87;77.46;98509.94;4972263;28;20097;-79
2021/11/12 09:33:45;;;;;;;38.40;13.55;;;;;;;2.87;77.28;98502.94;4972849;28;20062;-78
2021/11/12 09:36:11;;;;;;;36.85;12.98;;;;;;;3.07;77.48;98512.09;4973130;28;20107;-77
2021/11/12 09:38:39;;;;;;;30.30;11.98;;;;;;;3.10;76.89;98495.38;4972644;28;20399;-82
2021/11/12 09:41:06;;;;;;;28.05;12.35;;;;;;;3.26;77.03;98500.44;4955443;28;20050;-78
2021/11/12 09:43:32;;;;;;;31.52;11.75;;;;;;;3.20;76.81;98495.59;4973258;28;20093;-78
2021/11/12 09:45:58;;;;;;;32.05;12.70;;;;;;;3.21;76.88;98499.91;4972777;28;20074;-78
2021/11/12 09:48:24;;;;;;;31.10;13.63;;;;;;;3.22;76.93;98493.75;4945267;28;20062;-77
2021/11/12 09:50:52;;;;;;;40.58;17.33;;;;;;;3.27;77.06;98496.06;4946332;28;20089;-79
2021/11/12 09:53:18;;;;;;;44.45;16.27;;;;;;;3.33;77.02;98503.50;4930866;28;20039;-76
2021/11/12 09:55:45;;;;;;;53.10;18.25;;;;;;;3.34;77.03;98494.69;4937698;28;20043;-81
2021/11/12 09:58:11;;;;;;;44.08;15.35;;;;;;;3.37;77.03;98494.50;4954268;28;20053;-77
2021/11/12 10:00:39;;;;;;;37.08;13.90;;;;;;;3.43;76.60;98495.84;4952729;29;20114;-79
2021/11/12 10:03:07;;;;;;;30.00;12.00;;;;;;;3.47;76.54;98500.78;4935791;29;20043;-79
2021/11/12 10:05:42;;;;;;;;;;;;;;;3.47;76.88;98498.16;4933801;28;20035;-77
2021/11/12 10:08:20;;;;;;;29.98;10.82;;;;;;;3.57;76.61;98493.16;4937328;28;20065;-77
2021/11/12 10:10:55;;;;;;;29.88;12.55;;;;;;;3.51;76.60;98504.03;4951804;28;20049;-78
2021/11/12 10:13:33;;;;;;;28.95;13.50;;;;;;;3.50;76.51;98497.13;4951808;28;20047;-77
2021/11/12 10:19:14;;;;;;;29.35;12.60;;;;;;;3.65;76.55;98497.88;4952562;28;20051;-78
2021/11/12 10:21:43;;;;;;;23.45;10.55;;;;;;;3.76;76.19;98499.75;4952010;29;20109;-78
2021/11/12 10:24:16;;;;;;;27.77;10.98;;;;;;;3.75;76.43;98498.94;4957979;28;20047;-81
2021/11/12 10:26:49;;;;;;;31.77;11.50;;;;;;;3.72;76.03;98506.97;4963832;28;20051;-81
2021/11/12 10:29:20;;;;;;;26.88;10.93;;;;;;;3.77;76.43;98501.44;4940582;29;20057;-78
2021/11/12 10:31:55;;;;;;;27.42;10.60;;;;;;;3.77;76.34;98504.06;4956741;28;20045;-83
2021/11/12 10:34:30;;;;;;;26.42;11.23;;;;;;;3.78;76.44;98509.19;4938344;29;20333;-82
2021/11/12 10:37:03;;;;;;;27.65;12.20;;;;;;;3.84;76.38;98506.13;4955700;28;20047;-80
2021/11/12 10:39:41;;;;;;;56.92;20.38;;;;;;;3.91;76.31;98501.31;4939875;29;20043;-77
2021/11/12 10:42:33;;;;;;;32.05;12.98;;;;;;;3.92;76.63;98507.41;4964300;28;20051;-81
2021/11/12 10:45:08;;;;;;;39.45;15.05;;;;;;;4.05;76.94;98509.06;4968817;28;20082;-76
2021/11/12 10:47:37;;;;;;;27.30;12.05;;;;;;;4.11;76.56;98512.19;4962535;28;20473;-77
2021/11/12 10:50:05;;;;;;;25.48;11.93;;;;;;;4.18;76.14;98519.50;4939772;29;20057;-76
2021/11/12 10:52:33;;;;;;;27.02;10.57;;;;;;;4.16;76.43;98507.47;4962192;28;20050;-80
2021/11/12 10:55:09;;;;;;;23.52;10.23;;;;;;;4.18;76.55;98508.22;4939788;29;20093;-77
2021/11/12 10:57:53;;;;;;;23.30;10.13;;;;;;;4.18;76.39;98508.22;4957988;28;20048;-78
2021/11/12 11:00:23;;;;;;;33.10;14.05;;;;;;;4.20;76.56;98507.16;4939407;29;20393;-78
2021/11/12 11:02:59;;;;;;;25.77;11.30;;;;;;;4.26;76.41;98499.81;4945228;28;20050;-78
2021/11/12 11:05:39;;;;;;;29.05;10.98;;;;;;;4.32;76.30;98494.16;4948024;28;20093;-80
2021/11/12 11:08:16;;;;;;;28.52;11.38;;;;;;;4.48;76.58;98501.75;4941467;29;20055;-75
2021/11/12 11:10:44;;;;;;;25.75;11.00;;;;;;;4.48;76.30;98499.97;4951320;28;20062;-78
2021/11/12 11:13:12;;;;;;;32.20;11.52;;;;;;;4.50;76.48;98502.50;4940939;28;20060;-80
2021/11/12 11:15:39;;;;;;;30.73;11.98;;;;;;;4.46;76.46;98512.34;4964918;28;20131;-79
2021/11/12 11:20:54;;;;;;;31.63;13.32;;;;;;;4.54;76.66;98509.19;4963318;29;20073;-78
2021/11/12 11:23:23;;;;;;;25.02;9.70;;;;;;;4.60;75.87;98508.75;4965750;28;20094;-79
2021/11/12 11:26:00;;;;;;;22.02;9.60;;;;;;;4.67;75.79;98517.00;4917857;28;20555;-79
2021/11/12 11:28:26;;;;;;;20.00;8.75;;;;;;;4.66;75.82;98513.56;4964186;28;20059;-80
2021/11/12 11:30:58;;;;;;;26.92;9.90;;;;;;;4.65;75.62;98514.50;4977021;28;20046;-77
2021/11/12 11:33:26;;;;;;;22.20;10.23;;;;;;;4.82;75.21;98518.53;4942497;28;20847;-79
2021/11/12 11:35:55;;;;;;;24.40;10.15;;;;;;;4.93;75.47;98515.09;4969482;28;20073;-82
2021/11/12 11:38:34;;;;;;;21.88;9.75;;;;;;;4.89;74.70;98502.38;4924131;28;20591;-84
2021/11/12 11:41:04;;;;;;;22.23;9.32;;;;;;;4.92;74.91;98518.69;4924974;28;20540;-81
2021/11/12 11:43:31;;;;;;;20.88;8.85;;;;;;;5.01;75.04;98518.03;4908986;29;20035;-84
2021/11/12 11:46:10;;;;;;;19.70;8.63;;;;;;;5.01;74.60;98528.50;4952361;28;20155;-79
2021/11/12 11:48:42;;;;;;;15.88;7.47;;;;;;;4.97;75.27;98519.19;4940990;28;20399;-81
2021/11/12 11:51:08;;;;;;;20.92;8.57;;;;;;;4.93;74.78;98519.53;4945597;29;20094;-82
2021/11/12 11:53:46;;;;;;;20.88;8.23;;;;;;;4.92;75.43;98523.94;4933055;29;20440;-81
2021/11/12 11:56:27;;;;;;;25.75;9.32;;;;;;;4.91;75.47;98517.03;4933667;28;20073;-80
2021/11/12 11:58:57;;;;;;;18.30;8.52;;;;;;;4.92;75.00;98518.69;4937980;29;20362;-84
2021/11/12 12:01:33;;;;;;;23.58;10.15;;;;;;;4.87;75.75;98526.03;4901795;28;20576;-82
2021/11/12 12:04:05;;;;;;;22.60;9.77;;;;;;;4.91;75.40;98526.66;4924321;28;20043;-82
2021/11/12 12:06:31;;;;;;;25.40;10.70;;;;;;;4.96;75.71;98528.00;4961287;28;20038;-78
2021/11/12 12:09:06;;;;;;;33.10;12.95;;;;;;;5.00;75.21;98529.44;4927525;29;20047;-84
2021/11/12 12:11:55;;;;;;;23.63;10.45;;;;;;;4.93;75.27;98530.00;4928204;29;20051;-84
2021/11/12 12:14:27;;;;;;;22.00;9.32;;;;;;;5.01;74.68;98531.13;4932787;28;20468;-81
2021/11/12 12:17:06;;;;;;;18.65;8.75;;;;;;;5.02;75.11;98529.31;4917853;29;20062;-81
2021/11/12 13:25:56;;;;;;;11.30;4.55;;;;;;;4.93;74.51;98580.59;4941505;28;20091;-81
2021/11/12 13:28:31;;;;;;;9.43;3.40;;;;;;;4.89;73.90;98587.03;4943981;28;20535;-79
2021/11/12 13:30:59;;;;;;;9.15;4.47;;;;;;;4.96;73.91;98588.25;4923857;28;20039;-82
2021/11/12 13:33:44;;;;;;;8.60;3.80;;;;;;;4.88;74.41;98584.53;4924952;29;20043;-78
2021/11/12 13:36:35;;;;;;;;;;;;;;;;;;;;;
2021/11/12 13:39:08;;;;;;;7.05;2.60;;;;;;;4.72;74.67;98584.75;4941823;29;20062;-81
2021/11/12 13:41:37;;;;;;;13.15;4.13;;;;;;;4.74;74.60;98582.88;4907419;28;20038;-79
2021/11/12 13:44:18;;;;;;;14.23;3.88;;;;;;;4.76;73.94;98584.44;4945425;29;20042;-79
2021/11/12 13:46:54;;;;;;;19.50;7.43;;;;;;;4.78;74.03;98594.81;4937633;28;20071;-80
2021/11/12 13:49:36;;;;;;;6.55;2.50;;;;;;;4.86;72.99;98597.75;4940390;29;20042;-78
2021/11/12 13:52:18;;;;;;;7.43;2.97;;;;;;;4.93;72.89;98604.19;4939088;29;20047;-81
2021/11/12 13:54:53;;;;;;;5.63;2.15;;;;;;;5.05;72.48;98617.34;4956086;28;20039;-79
2021/11/12 13:57:21;;;;;;;5.88;2.00;;;;;;;5.07;71.81;98615.47;4939068;28;20046;-83
2021/11/12 13:59:57;;;;;;;3.08;1.63;;;;;;;4.97;72.13;98623.16;4933808;29;20111;-86
2021/11/12 14:02:24;;;;;;;5.72;1.67;;;;;;;5.01;72.14;98630.69;4965829;28;20106;-79
2021/11/12 14:04:50;;;;;;;7.88;3.30;;;;;;;5.06;71.79;98632.13;4923119;28;20035;-82
2021/11/12 14:07:21;;;;;;;14.23;5.82;;;;;;;4.98;72.53;98638.75;4955261;28;20077;-83
2021/11/12 14:10:07;;;;;;;10.05;3.28;;;;;;;5.00;71.61;98631.63;4915546;28;20047;-82
2021/11/12 14:12:35;;;;;;;8.02;2.97;;;;;;;5.03;71.80;98638.44;4938424;28;20137;-79
2021/11/12 14:15:20;;;;;;;2.97;1.40;;;;;;;5.01;72.01;98646.41;4940283;29;20040;-82
2021/11/12 14:17:59;;;;;;;5.90;2.03;;;;;;;4.99;71.09;98650.91;4969248;28;20043;-82
2021/11/12 14:20:30;;;;;;;5.13;1.90;;;;;;;5.07;71.36;98654.78;4927436;28;20054;-81
2021/11/12 14:23:17;;;;;;;5.43;2.17;;;;;;;5.10;71.35;98654.59;4939351;28;20389;-81
2021/11/12 14:36:52;;;;;;;5.50;2.22;;;;;;;5.09;70.92;98673.88;4953387;28;20039;-83
2021/11/12 14:44:42;;;;;;;5.75;1.60;;;;;;;5.15;70.11;98676.06;4952375;28;20039;-81
2021/11/12 14:47:22;;;;;;;5.88;1.80;;;;;;;5.14;70.28;98684.84;4946481;28;20047;-83
2021/11/12 14:50:00;;;;;;;14.95;4.78;;;;;;;5.04;69.79;98689.91;4934991;28;20035;-80
2021/11/12 14:52:27;;;;;;;7.60;3.08;;;;;;;5.09;70.04;98700.91;4924295;29;20141;-80
2021/11/12 14:55:05;;;;;;;5.18;1.88;;;;;;;5.07;70.12;98709.81;4930231;29;20089;-79
2021/11/12 14:57:38;;;;;;;5.82;2.22;;;;;;;4.97;70.07;98694.75;4945770;28;20101;-83
2021/11/12 15:00:13;;;;;;;8.93;4.28;;;;;;;4.93;70.84;98695.88;4942444;28;20183;-83
2021/11/12 15:02:48;;;;;;;10.95;3.45;;;;;;;4.94;71.07;98700.19;4920858;29;20035;-82
2021/11/12 15:05:25;;;;;;;12.40;3.50;;;;;;;4.83;71.20;98694.88;4938500;28;20043;-80
2021/11/12 15:07:57;;;;;;;6.55;3.13;;;;;;;4.88;71.36;98708.47;4961553;28;20054;-81
2021/11/12 15:10:27;;;;;;;27.90;8.70;;;;;;;4.83;71.85;98710.59;4923846;29;20047;-82
2021/11/12 15:12:57;;;;;;;20.92;7.03;;;;;;;4.86;71.13;98711.22;4924367;29;20417;-78
2021/11/12 15:15:24;;;;;;;36.72;10.57;;;;;;;4.82;71.62;98711.53;4926713;29;20097;-80
2021/11/12 15:17:52;;;;;;;26.75;8.07;;;;;;;4.88;70.95;98711.09;4942673;28;20051;-82
2021/11/12 15:20:21;;;;;;;17.67;4.95;;;;;;;4.94;71.06;98715.91;4945906;28;20501;-82
2021/11/12 15:30:50;;;;;;;9.68;4.45;;;;;;;4.98;70.79;98727.84;4918845;29;20551;-81
2021/11/12 15:33:18;;;;;;;15.75;5.65;;;;;;;5.02;71.04;98737.19;4921215;29;20682;-80
2021/11/12 15:35:48;;;;;;;18.43;5.73;;;;;;;4.99;71.36;98736.56;4943343;29;20059;-81
2021/11/12 15:40:58;;;;;;;9.25;3.53;;;;;;;4.94;71.81;98744.72;4936526;29;20078;-82
2021/11/12 15:43:30;;;;;;;16.02;4.38;;;;;;;4.95;72.16;98742.97;4906239;29;20039;-80
2021/11/12 15:46:08;;;;;;;7.47;2.55;;;;;;;5.02;72.06;98750.28;4928584;29;20047;-79
2021/11/12 15:48:37;;;;;;;4.82;2.28;;;;;;;5.02;71.43;98742.44;4945887;29;20043;-80
2021/11/12 15:53:56;;;;;;;11.45;3.90;;;;;;;5.24;71.11;98753.22;4937467;29;20039;-81
2021/11/12 15:56:51;;;;;;;15.80;4.78;;;;;;;5.13;71.50;98740.84;4922552;29;20044;-78
2021/11/12 15:59:25;;;;;;;24.40;8.38;;;;;;;5.10;71.58;98735.81;4900361;29;20156;-83
2021/11/12 16:12:28;;;;;;;8.88;3.28;;;;;;;5.05;71.83;98758.88;4924928;29;20048;-82
2021/11/12 16:19:59;;;;;;;10.10;4.53;;;;;;;4.98;72.12;98771.56;4932842;29;20131;-81
2021/11/12 16:22:43;;;;;;;9.68;3.72;;;;;;;5.00;72.21;98783.63;4893889;29;20055;-83
2021/11/12 16:25:16;;;;;;;24.17;12.07;;;;;;;4.99;71.91;98768.84;4891743;29;20055;-83
2021/11/12 16:27:46;;;;;;;66.80;32.47;;;;;;;4.87;72.74;98756.56;4931538;29;20047;-84
2021/11/12 16:30:13;;;;;;;7.88;2.88;;;;;;;4.96;72.21;98774.31;4945438;29;20055;-85
2021/11/12 16:35:09;;;;;;;19.77;6.57;;;;;;;4.91;72.54;98776.41;4925864;29;20047;-82
2021/11/12 16:37:36;;;;;;;11.13;3.72;;;;;;;4.94;71.75;98780.59;4910699;28;20523;-78
2021/11/12 16:40:21;;;;;;;10.05;3.80;;;;;;;5.01;71.73;98785.31;4960199;28;20034;-86
2021/11/12 16:50:28;;;;;;;11.55;4.35;;;;;;;4.88;72.39;98789.69;4924689;29;20047;-79
2021/11/12 17:11:30;;;;;;;11.15;3.92;;;;;;;4.96;72.24;98826.72;4961257;28;20046;-79
2021/11/12 17:44:49;;;;;;;54.65;20.80;;;;;;;5.01;72.39;98845.56;4953564;29;20094;-83
2021/11/12 17:46:58;;;;;;;16.42;6.43;;;;;;;4.64;73.81;98845.41;4923543;29;20062;-82
2021/11/12 18:02:59;;;;;;;7.03;2.85;;;;;;;4.79;74.10;98866.31;4908286;29;20040;-81
2021/11/12 18:05:45;;;;;;;17.23;5.63;;;;;;;4.75;73.52;98856.94;4911001;29;20051;-84
2021/11/12 21:46:55;;;;;;;4.70;1.77;;;;;;;4.93;73.66;99106.44;4953344;28;20110;-80
2021/11/12 21:49:25;;;;;;;4.28;1.90;;;;;;;4.90;73.71;99115.34;4935456;29;20139;-83
2021/11/12 21:51:56;;;;;;;3.80;1.70;;;;;;;4.95;73.55;99125.53;4909218;29;20066;-81
2021/11/12 21:54:22;;;;;;;2.60;1.50;;;;;;;4.95;73.61;99112.44;4901756;29;20645;-77